createdAt,value
2018-06-27T00:00:20.773Z,13.71
2018-06-27T00:01:20.817Z,13.72
2018-06-27T00:02:20.806Z,13.70
2018-06-27T00:03:20.833Z,13.62
2018-06-27T00:04:20.847Z,13.57
2018-06-27T00:05:20.870Z,13.22
2018-06-27T00:06:20.892Z,13.16
2018-06-27T00:07:20.903Z,13.12
2018-06-27T00:08:20.920Z,13.11
2018-06-27T00:09:20.941Z,13.09
2018-06-27T00:10:20.969Z,13.27
2018-06-27T00:11:20.975Z,13.27
2018-06-27T00:12:21.005Z,13.47
2018-06-27T00:13:21.016Z,13.54
2018-06-27T00:14:21.045Z,13.60
2018-06-27T00:15:21.057Z,13.71
2018-06-27T00:16:21.070Z,13.72
2018-06-27T00:17:21.086Z,13.74
2018-06-27T00:18:21.106Z,13.78
2018-06-27T00:19:21.160Z,13.87
2018-06-27T00:20:21.145Z,13.92
2018-06-27T00:21:21.192Z,13.95
2018-06-27T00:22:21.184Z,13.86
2018-06-27T00:23:21.210Z,13.96
2018-06-27T00:24:21.219Z,13.93
2018-06-27T00:25:21.241Z,13.92
2018-06-27T00:26:21.271Z,13.72
2018-06-27T00:27:21.284Z,13.59
2018-06-27T00:28:21.297Z,13.41
2018-06-27T00:29:21.314Z,13.27
2018-06-27T00:30:21.335Z,12.97
2018-06-27T00:31:21.369Z,12.83
2018-06-27T00:32:21.379Z,12.65
2018-06-27T00:33:21.400Z,12.70
2018-06-27T00:34:21.399Z,12.94
2018-06-27T00:35:21.415Z,12.85
2018-06-27T00:36:21.437Z,12.93
2018-06-27T00:37:21.482Z,13.13
2018-06-27T00:38:21.485Z,13.27
2018-06-27T00:39:21.499Z,13.03
2018-06-27T00:40:21.524Z,13.16
2018-06-27T00:41:21.543Z,13.30
2018-06-27T00:42:21.554Z,13.15
2018-06-27T00:43:21.580Z,13.15
2018-06-27T00:44:21.588Z,13.25
2018-06-27T00:45:21.604Z,13.31
2018-06-27T00:46:21.632Z,13.20
2018-06-27T00:47:21.646Z,13.13
2018-06-27T00:48:21.670Z,13.12
2018-06-27T00:49:21.678Z,13.13
2018-06-27T00:50:21.721Z,13.13
2018-06-27T00:51:21.727Z,12.87
2018-06-27T00:52:21.747Z,12.95
2018-06-27T00:53:21.751Z,12.82
2018-06-27T00:54:21.776Z,12.94
2018-06-27T00:55:21.802Z,13.15
2018-06-27T00:56:21.823Z,13.16
2018-06-27T00:57:21.847Z,12.94
2018-06-27T00:58:21.860Z,12.83
2018-06-27T00:59:21.880Z,12.98
2018-06-27T01:00:21.897Z,12.61
2018-06-27T01:01:21.901Z,12.55
2018-06-27T01:02:21.986Z,12.58
2018-06-27T01:03:21.935Z,12.47
2018-06-27T01:04:21.954Z,12.60
2018-06-27T01:05:21.973Z,12.83
2018-06-27T01:06:21.987Z,12.94
2018-06-27T01:07:22.003Z,13.01
2018-06-27T01:08:22.033Z,12.79
2018-06-27T01:09:22.066Z,12.76
2018-06-27T01:10:22.063Z,13.00
2018-06-27T01:11:22.074Z,12.82
2018-06-27T01:12:22.098Z,12.79
2018-06-27T01:13:22.127Z,12.90
2018-06-27T01:14:22.135Z,12.98
2018-06-27T01:15:22.175Z,12.87
2018-06-27T01:16:22.173Z,13.01
2018-06-27T01:17:22.185Z,13.08
2018-06-27T01:18:22.211Z,12.86
2018-06-27T01:19:22.242Z,12.97
2018-06-27T01:20:22.262Z,13.05
2018-06-27T01:21:22.302Z,13.11
2018-06-27T01:22:22.279Z,12.82
2018-06-27T01:23:22.300Z,12.86
2018-06-27T01:24:22.315Z,13.09
2018-06-27T01:25:22.334Z,13.05
2018-06-27T01:26:22.367Z,13.00
2018-06-27T01:27:22.368Z,13.11
2018-06-27T01:28:22.393Z,13.08
2018-06-27T01:29:22.405Z,13.16
2018-06-27T01:30:22.430Z,13.04
2018-06-27T01:31:22.446Z,12.87
2018-06-27T01:32:22.468Z,12.95
2018-06-27T01:33:22.483Z,13.13
2018-06-27T01:34:22.495Z,12.79
2018-06-27T01:35:22.531Z,12.90
2018-06-27T01:36:22.539Z,12.79
2018-06-27T01:37:22.551Z,12.78
2018-06-27T01:38:22.585Z,13.01
2018-06-27T01:39:22.596Z,12.65
2018-06-27T01:40:22.625Z,12.70
2018-06-27T01:41:22.631Z,12.79
2018-06-27T01:42:22.642Z,12.61
2018-06-27T01:43:22.672Z,12.31
2018-06-27T01:44:22.681Z,12.53
2018-06-27T01:45:22.706Z,12.42
2018-06-27T01:46:22.716Z,12.42
2018-06-27T01:47:22.738Z,12.50
2018-06-27T01:48:22.756Z,12.67
2018-06-27T01:49:22.783Z,12.39
2018-06-27T01:50:22.804Z,12.18
2018-06-27T01:51:22.819Z,12.43
2018-06-27T01:52:22.828Z,12.43
2018-06-27T01:53:22.844Z,12.42
2018-06-27T01:54:22.884Z,12.46
2018-06-27T01:55:22.883Z,12.65
2018-06-27T01:56:22.901Z,12.61
2018-06-27T01:57:22.917Z,12.46
2018-06-27T01:58:22.941Z,12.45
2018-06-27T01:59:22.952Z,12.42
2018-06-27T02:00:22.975Z,12.57
2018-06-27T02:01:22.992Z,12.43
2018-06-27T02:02:23.008Z,12.31
2018-06-27T02:03:23.026Z,12.49
2018-06-27T02:04:23.052Z,12.39
2018-06-27T02:05:23.079Z,12.32
2018-06-27T02:06:23.086Z,12.28
2018-06-27T02:07:23.107Z,12.43
2018-06-27T02:08:23.134Z,12.43
2018-06-27T02:09:23.135Z,12.37
2018-06-27T02:10:23.151Z,12.29
2018-06-27T02:11:23.181Z,12.49
2018-06-27T02:12:23.189Z,12.67
2018-06-27T02:13:23.226Z,12.79
2018-06-27T02:14:23.253Z,12.53
2018-06-27T02:15:23.255Z,12.42
2018-06-27T02:16:23.276Z,12.40
2018-06-27T02:17:23.274Z,12.46
2018-06-27T02:18:23.310Z,12.55
2018-06-27T02:19:23.320Z,12.76
2018-06-27T02:20:23.330Z,12.72
2018-06-27T02:21:23.350Z,12.47
2018-06-27T02:22:23.396Z,12.45
2018-06-27T02:23:23.394Z,12.57
2018-06-27T02:24:23.412Z,12.43
2018-06-27T02:25:23.435Z,12.35
2018-06-27T02:26:23.447Z,12.35
2018-06-27T02:27:23.498Z,12.20
2018-06-27T02:28:23.486Z,11.94
2018-06-27T02:29:23.503Z,12.07
2018-06-27T02:30:23.526Z,12.20
2018-06-27T02:31:23.554Z,12.21
2018-06-27T02:32:23.569Z,12.29
2018-06-27T02:33:23.579Z,12.29
2018-06-27T02:34:23.602Z,12.29
2018-06-27T02:35:23.617Z,12.21
2018-06-27T02:36:23.624Z,12.28
2018-06-27T02:37:23.649Z,12.37
2018-06-27T02:38:23.681Z,12.40
2018-06-27T02:39:23.673Z,12.42
2018-06-27T02:40:23.704Z,12.61
2018-06-27T02:41:23.710Z,12.70
2018-06-27T02:42:23.736Z,12.83
2018-06-27T02:43:23.763Z,12.57
2018-06-27T02:44:23.777Z,12.68
2018-06-27T02:45:23.797Z,12.54
2018-06-27T02:46:23.804Z,12.53
2018-06-27T02:47:23.828Z,12.45
2018-06-27T02:48:23.838Z,12.32
2018-06-27T02:49:23.857Z,12.32
2018-06-27T02:50:23.880Z,12.31
2018-06-27T02:51:23.904Z,12.43
2018-06-27T02:52:23.927Z,12.35
2018-06-27T02:53:23.931Z,12.43
2018-06-27T02:54:23.945Z,12.43
2018-06-27T02:55:23.969Z,12.67
2018-06-27T02:56:23.982Z,12.50
2018-06-27T02:57:24.011Z,12.27
2018-06-27T02:58:24.031Z,12.04
2018-06-27T02:59:24.037Z,12.21
2018-06-27T03:00:24.060Z,12.24
2018-06-27T03:01:24.085Z,11.95
2018-06-27T03:02:24.163Z,12.06
2018-06-27T03:03:24.131Z,12.07
2018-06-27T03:04:24.136Z,12.27
2018-06-27T03:05:24.151Z,12.17
2018-06-27T03:06:24.164Z,12.20
2018-06-27T03:07:24.183Z,12.40
2018-06-27T03:08:24.202Z,12.20
2018-06-27T03:09:24.220Z,12.10
2018-06-27T03:10:24.239Z,12.20
2018-06-27T03:11:24.258Z,12.15
2018-06-27T03:12:24.274Z,12.13
2018-06-27T03:13:24.326Z,12.07
2018-06-27T03:14:24.311Z,12.07
2018-06-27T03:15:24.331Z,12.24
2018-06-27T03:16:24.361Z,12.37
2018-06-27T03:17:24.359Z,12.32
2018-06-27T03:18:24.382Z,12.29
2018-06-27T03:19:24.404Z,12.24
2018-06-27T03:20:24.419Z,12.46
2018-06-27T03:21:24.438Z,12.46
2018-06-27T03:22:24.457Z,12.43
2018-06-27T03:23:24.489Z,12.46
2018-06-27T03:24:24.488Z,12.32
2018-06-27T03:25:24.505Z,12.22
2018-06-27T03:26:24.523Z,12.31
2018-06-27T03:27:24.540Z,12.45
2018-06-27T03:28:24.581Z,12.58
2018-06-27T03:29:24.590Z,12.54
2018-06-27T03:30:24.601Z,12.65
2018-06-27T03:31:24.623Z,12.76
2018-06-27T03:32:24.637Z,12.83
2018-06-27T03:33:24.650Z,13.00
2018-06-27T03:34:24.672Z,13.01
2018-06-27T03:35:24.685Z,13.12
2018-06-27T03:36:24.706Z,13.13
2018-06-27T03:37:24.727Z,13.23
2018-06-27T03:38:24.745Z,13.27
2018-06-27T03:39:24.762Z,13.12
2018-06-27T03:40:24.781Z,13.33
2018-06-27T03:41:24.807Z,13.27
2018-06-27T03:42:24.816Z,13.05
2018-06-27T03:43:24.838Z,13.23
2018-06-27T03:44:24.857Z,13.41
2018-06-27T03:45:24.869Z,13.27
2018-06-27T03:46:24.917Z,13.18
2018-06-27T03:47:24.901Z,13.39
2018-06-27T03:48:24.935Z,13.42
2018-06-27T03:49:24.941Z,13.23
2018-06-27T03:50:24.961Z,13.49
2018-06-27T03:51:24.980Z,13.46
2018-06-27T03:52:25.004Z,13.31
2018-06-27T03:53:25.014Z,13.27
2018-06-27T03:54:25.054Z,13.23
2018-06-27T03:55:25.067Z,13.23
2018-06-27T03:56:25.066Z,13.35
2018-06-27T03:57:25.091Z,13.30
2018-06-27T03:58:25.107Z,13.39
2018-06-27T03:59:25.169Z,13.22
2018-06-27T04:00:25.158Z,13.33
2018-06-27T04:01:25.171Z,13.38
2018-06-27T04:02:25.205Z,13.54
2018-06-27T04:03:25.199Z,13.71
2018-06-27T04:04:25.233Z,13.96
2018-06-27T04:05:25.234Z,14.12
2018-06-27T04:06:25.258Z,14.23
2018-06-27T04:07:25.281Z,14.36
2018-06-27T04:08:25.311Z,14.41
2018-06-27T04:09:25.324Z,14.54
2018-06-27T04:10:25.330Z,14.68
2018-06-27T04:11:25.350Z,14.63
2018-06-27T04:12:25.366Z,14.22
2018-06-27T04:13:25.454Z,14.18
2018-06-27T04:14:25.417Z,14.22
2018-06-27T04:15:25.453Z,14.05
2018-06-27T04:16:25.446Z,14.23
2018-06-27T04:17:25.502Z,14.29
2018-06-27T04:18:25.486Z,14.44
2018-06-27T04:19:25.506Z,14.15
2018-06-27T04:20:25.529Z,14.30
2018-06-27T04:21:25.563Z,14.33
2018-06-27T04:22:25.561Z,14.36
2018-06-27T04:23:25.569Z,14.35
2018-06-27T04:24:25.593Z,14.51
2018-06-27T04:25:25.619Z,14.68
2018-06-27T04:26:25.635Z,14.99
2018-06-27T04:27:25.651Z,14.94
2018-06-27T04:28:25.683Z,14.86
2018-06-27T04:29:25.796Z,14.88
2018-06-27T04:30:25.712Z,15.04
2018-06-27T04:31:25.741Z,15.25
2018-06-27T04:32:25.745Z,15.37
2018-06-27T04:33:25.758Z,15.39
2018-06-27T04:34:25.809Z,15.07
2018-06-27T04:35:25.799Z,14.89
2018-06-27T04:36:25.828Z,14.92
2018-06-27T04:37:25.841Z,15.10
2018-06-27T04:38:25.854Z,15.15
2018-06-27T04:39:25.884Z,15.17
2018-06-27T04:40:25.895Z,15.06
2018-06-27T04:41:25.927Z,15.09
2018-06-27T04:42:25.932Z,15.03
2018-06-27T04:43:25.956Z,15.27
2018-06-27T04:44:25.972Z,15.21
2018-06-27T04:45:26.000Z,15.14
2018-06-27T04:46:26.009Z,14.97
2018-06-27T04:47:26.043Z,14.94
2018-06-27T04:48:26.050Z,15.11
2018-06-27T04:49:26.091Z,15.39
2018-06-27T04:50:26.080Z,15.58
2018-06-27T04:51:26.109Z,15.55
2018-06-27T04:52:26.136Z,15.72
2018-06-27T04:53:26.148Z,15.79
2018-06-27T04:54:26.163Z,16.05
2018-06-27T04:55:26.189Z,16.16
2018-06-27T04:56:26.199Z,16.17
2018-06-27T04:57:26.217Z,15.94
2018-06-27T04:58:26.235Z,15.91
2018-06-27T04:59:26.271Z,16.08
2018-06-27T05:00:26.289Z,16.26
2018-06-27T05:01:26.314Z,16.31
2018-06-27T05:02:26.329Z,16.15
2018-06-27T05:03:26.346Z,15.77
2018-06-27T05:04:26.356Z,16.29
2018-06-27T05:05:26.369Z,16.47
2018-06-27T05:06:26.416Z,16.56
2018-06-27T05:07:26.430Z,16.58
2018-06-27T05:08:26.437Z,16.60
2018-06-27T05:09:26.495Z,16.60
2018-06-27T05:10:26.475Z,16.86
2018-06-27T05:11:26.493Z,16.61
2018-06-27T05:12:26.513Z,16.29
2018-06-27T05:13:26.536Z,16.61
2018-06-27T05:14:26.562Z,16.79
2018-06-27T05:15:26.573Z,16.72
2018-06-27T05:16:26.611Z,16.93
2018-06-27T05:17:26.613Z,17.15
2018-06-27T05:18:26.641Z,17.31
2018-06-27T05:19:26.656Z,17.51
2018-06-27T05:20:26.679Z,17.49
2018-06-27T05:21:26.707Z,17.68
2018-06-27T05:22:26.708Z,17.85
2018-06-27T05:23:26.728Z,17.97
2018-06-27T05:24:26.759Z,17.70
2018-06-27T05:25:26.781Z,17.86
2018-06-27T05:26:26.792Z,17.85
2018-06-27T05:27:26.871Z,18.08
2018-06-27T05:28:26.840Z,18.05
2018-06-27T05:29:26.939Z,18.25
2018-06-27T05:30:26.887Z,18.45
2018-06-27T05:31:26.907Z,18.65
2018-06-27T05:32:26.953Z,18.71
2018-06-27T05:33:26.928Z,18.86
2018-06-27T05:34:26.950Z,18.60
2018-06-27T05:35:26.971Z,18.66
2018-06-27T05:36:27.001Z,18.60
2018-06-27T05:37:27.029Z,18.74
2018-06-27T05:38:27.033Z,18.84
2018-06-27T05:39:27.068Z,18.73
2018-06-27T05:40:27.082Z,18.88
2018-06-27T05:41:27.095Z,19.00
2018-06-27T05:42:27.113Z,19.15
2018-06-27T05:43:27.136Z,19.29
2018-06-27T05:44:27.169Z,19.41
2018-06-27T05:45:27.174Z,19.47
2018-06-27T05:46:27.201Z,19.37
2018-06-27T05:47:27.223Z,19.40
2018-06-27T05:48:27.259Z,19.34
2018-06-27T05:49:27.310Z,19.47
2018-06-27T05:50:27.286Z,19.39
2018-06-27T05:51:27.299Z,19.45
2018-06-27T05:52:27.342Z,19.51
2018-06-27T05:53:27.346Z,19.39
2018-06-27T05:54:27.363Z,19.51
2018-06-27T05:55:27.387Z,19.88
2018-06-27T05:56:27.402Z,19.54
2018-06-27T05:57:27.433Z,19.62
2018-06-27T05:58:27.464Z,19.27
2018-06-27T05:59:27.473Z,19.30
2018-06-27T06:00:27.516Z,19.24
2018-06-27T06:01:27.518Z,19.59
2018-06-27T06:02:27.530Z,19.30
2018-06-27T06:03:27.560Z,19.00
2018-06-27T06:04:27.681Z,18.74
2018-06-27T06:05:27.593Z,18.58
2018-06-27T06:06:27.613Z,18.43
2018-06-27T06:07:27.646Z,19.18
2018-06-27T06:08:27.665Z,19.51
2018-06-27T06:09:27.678Z,19.91
2018-06-27T06:10:27.704Z,20.13
2018-06-27T06:11:27.757Z,19.99
2018-06-27T06:12:27.750Z,19.70
2018-06-27T06:13:27.792Z,20.16
2018-06-27T06:14:27.797Z,19.82
2018-06-27T06:15:27.812Z,19.45
2018-06-27T06:16:27.824Z,19.30
2018-06-27T06:17:27.851Z,19.19
2018-06-27T06:18:27.871Z,19.19
2018-06-27T06:19:27.891Z,19.45
2018-06-27T06:20:27.921Z,19.34
2018-06-27T06:21:28.007Z,19.18
2018-06-27T06:22:27.953Z,19.09
2018-06-27T06:23:27.971Z,18.95
2018-06-27T06:24:28.009Z,19.26
2018-06-27T06:25:28.098Z,19.29
2018-06-27T06:26:28.037Z,19.30
2018-06-27T06:27:28.056Z,19.22
2018-06-27T06:28:28.079Z,19.27
2018-06-27T06:29:28.118Z,19.69
2018-06-27T06:30:28.127Z,20.18
2018-06-27T06:31:28.139Z,19.91
2018-06-27T06:32:28.181Z,19.71
2018-06-27T06:33:28.182Z,19.91
2018-06-27T06:34:28.202Z,20.50
2018-06-27T06:35:28.249Z,20.70
2018-06-27T06:36:28.254Z,21.15
2018-06-27T06:37:28.274Z,20.97
2018-06-27T06:38:28.301Z,20.34
2018-06-27T06:39:28.329Z,20.66
2018-06-27T06:40:28.325Z,21.17
2018-06-27T06:41:28.373Z,21.99
2018-06-27T06:42:28.387Z,22.75
2018-06-27T06:43:28.427Z,22.55
2018-06-27T06:44:28.448Z,22.63
2018-06-27T06:45:28.451Z,23.13
2018-06-27T06:46:28.462Z,24.08
2018-06-27T06:47:28.488Z,24.23
2018-06-27T06:48:28.505Z,23.74
2018-06-27T06:49:28.531Z,23.09
2018-06-27T06:50:28.566Z,22.36
2018-06-27T06:51:28.579Z,21.77
2018-06-27T06:52:28.600Z,21.79
2018-06-27T06:53:28.644Z,22.68
2018-06-27T06:54:28.648Z,23.36
2018-06-27T06:55:28.678Z,23.76
2018-06-27T06:56:28.694Z,24.02
2018-06-27T06:57:28.726Z,24.01
2018-06-27T06:58:28.750Z,25.72
2018-06-27T06:59:28.768Z,26.26
2018-06-27T07:00:28.802Z,26.23
2018-06-27T07:01:28.833Z,26.38
2018-06-27T07:02:28.848Z,27.59
2018-06-27T07:03:28.878Z,28.11
2018-06-27T07:04:28.895Z,28.78
2018-06-27T07:05:28.916Z,27.25
2018-06-27T07:06:28.939Z,26.29
2018-06-27T07:07:28.969Z,26.78
2018-06-27T07:08:29.015Z,26.02
2018-06-27T07:09:29.018Z,25.62
2018-06-27T07:10:29.087Z,26.77
2018-06-27T07:11:29.074Z,28.23
2018-06-27T07:12:29.097Z,29.04
2018-06-27T07:13:29.126Z,29.59
2018-06-27T07:14:29.156Z,28.29
2018-06-27T07:15:29.203Z,29.54
2018-06-27T07:16:29.244Z,29.95
2018-06-27T07:17:29.264Z,28.70
2018-06-27T07:18:29.270Z,29.44
2018-06-27T07:19:29.292Z,29.02
2018-06-27T07:20:29.325Z,28.91
2018-06-27T07:21:29.353Z,28.00
2018-06-27T07:22:29.375Z,28.05
2018-06-27T07:23:29.412Z,27.98
2018-06-27T07:24:29.441Z,27.90
2018-06-27T07:25:29.467Z,28.00
2018-06-27T07:26:29.505Z,27.63
2018-06-27T07:27:29.534Z,27.40
2018-06-27T07:28:29.618Z,28.45
2018-06-27T07:29:29.575Z,28.48
2018-06-27T07:30:29.608Z,27.93
2018-06-27T07:31:29.636Z,27.52
2018-06-27T07:32:29.686Z,27.63
2018-06-27T07:33:29.691Z,28.74
2018-06-27T07:34:29.717Z,30.08
2018-06-27T07:35:29.754Z,31.10
2018-06-27T07:36:29.792Z,32.33
2018-06-27T07:37:29.812Z,32.87
2018-06-27T07:38:29.851Z,32.12
2018-06-27T07:39:29.875Z,31.07
2018-06-27T07:40:29.898Z,30.91
2018-06-27T07:41:29.938Z,32.18
2018-06-27T07:42:29.969Z,32.08
2018-06-27T07:43:29.990Z,32.93
2018-06-27T07:44:30.051Z,32.70
2018-06-27T07:45:30.070Z,32.58
2018-06-27T07:46:30.089Z,31.09
2018-06-27T07:47:30.116Z,30.91
2018-06-27T07:48:30.151Z,29.86
2018-06-27T07:49:30.193Z,29.44
2018-06-27T07:50:30.219Z,30.18
2018-06-27T07:51:30.245Z,30.91
2018-06-27T07:52:30.270Z,30.84
2018-06-27T07:53:30.302Z,30.12
2018-06-27T07:54:30.329Z,29.81
2018-06-27T07:55:30.358Z,30.34
2018-06-27T07:56:30.398Z,31.44
2018-06-27T07:57:30.417Z,31.58
2018-06-27T07:58:30.453Z,30.46
2018-06-27T07:59:30.484Z,30.00
2018-06-27T08:00:30.514Z,28.85
2018-06-27T08:01:30.551Z,29.71
2018-06-27T08:02:30.574Z,29.50
2018-06-27T08:03:30.610Z,29.41
2018-06-27T08:04:30.633Z,29.01
2018-06-27T08:05:30.667Z,29.90
2018-06-27T08:06:30.692Z,29.45
2018-06-27T08:07:30.722Z,29.23
2018-06-27T08:08:30.753Z,29.31
2018-06-27T08:09:30.779Z,30.70
2018-06-27T08:10:30.839Z,30.43
2018-06-27T08:11:30.850Z,29.29
2018-06-27T08:12:30.939Z,28.79
2018-06-27T08:13:30.896Z,29.27
2018-06-27T08:14:30.933Z,28.82
2018-06-27T08:15:30.960Z,29.13
2018-06-27T08:16:30.991Z,28.51
2018-06-27T08:17:31.015Z,28.48
2018-06-27T08:18:31.046Z,29.17
2018-06-27T08:19:31.076Z,29.60
2018-06-27T08:20:31.107Z,30.03
2018-06-27T08:21:31.143Z,31.28
2018-06-27T08:22:31.178Z,29.63
2018-06-27T08:23:31.192Z,30.54
2018-06-27T08:24:31.218Z,29.79
2018-06-27T08:25:31.256Z,29.32
2018-06-27T08:26:31.277Z,30.08
2018-06-27T08:27:31.326Z,30.32
2018-06-27T08:28:31.342Z,29.54
2018-06-27T08:29:31.357Z,29.72
2018-06-27T08:30:31.388Z,30.81
2018-06-27T08:31:31.417Z,30.80
2018-06-27T08:32:31.451Z,30.75
2018-06-27T08:33:31.479Z,31.69
2018-06-27T08:34:31.500Z,31.93
2018-06-27T08:35:31.522Z,31.77
2018-06-27T08:36:31.560Z,30.59
2018-06-27T08:37:31.589Z,29.82
2018-06-27T08:38:31.599Z,29.34
2018-06-27T08:39:31.628Z,28.89
2018-06-27T08:40:31.653Z,28.81
2018-06-27T08:41:31.679Z,29.27
2018-06-27T08:42:31.703Z,28.15
2018-06-27T08:43:31.752Z,27.92
2018-06-27T08:44:31.831Z,28.44
2018-06-27T08:45:31.783Z,27.83
2018-06-27T08:46:31.828Z,26.65
2018-06-27T08:47:31.841Z,26.23
2018-06-27T08:48:31.863Z,25.28
2018-06-27T08:49:31.904Z,24.89
2018-06-27T08:50:31.907Z,25.38
2018-06-27T08:51:31.930Z,24.60
2018-06-27T08:52:31.958Z,24.76
2018-06-27T08:53:31.977Z,25.06
2018-06-27T08:54:32.001Z,25.14
2018-06-27T08:55:32.027Z,24.95
2018-06-27T08:56:32.060Z,25.01
2018-06-27T08:57:32.093Z,24.95
2018-06-27T08:58:32.141Z,24.60
2018-06-27T08:59:32.126Z,24.47
2018-06-27T09:00:32.165Z,24.65
2018-06-27T09:01:32.171Z,24.60
2018-06-27T09:02:32.202Z,24.78
2018-06-27T09:03:32.222Z,24.53
2018-06-27T09:04:32.243Z,24.77
2018-06-27T09:05:32.265Z,24.53
2018-06-27T09:06:32.312Z,23.92
2018-06-27T09:07:32.315Z,24.16
2018-06-27T09:08:32.343Z,24.24
2018-06-27T09:09:32.362Z,24.60
2018-06-27T09:10:32.387Z,25.14
2018-06-27T09:11:32.408Z,25.31
2018-06-27T09:12:32.438Z,24.93
2018-06-27T09:13:32.450Z,24.85
2018-06-27T09:14:32.495Z,24.61
2018-06-27T09:15:32.492Z,24.58
2018-06-27T09:16:32.521Z,24.80
2018-06-27T09:17:32.559Z,25.14
2018-06-27T09:18:32.583Z,25.04
2018-06-27T09:19:32.612Z,25.06
2018-06-27T09:20:32.609Z,25.06
2018-06-27T09:21:32.652Z,24.99
2018-06-27T09:22:32.659Z,24.60
2018-06-27T09:23:32.690Z,24.26
2018-06-27T09:24:32.705Z,24.18
2018-06-27T09:25:32.727Z,24.58
2018-06-27T09:26:32.762Z,25.04
2018-06-27T09:27:32.791Z,25.35
2018-06-27T09:28:32.801Z,24.92
2018-06-27T09:29:32.819Z,25.26
2018-06-27T09:30:32.845Z,25.55
2018-06-27T09:31:32.871Z,24.69
2018-06-27T09:32:32.886Z,24.80
2018-06-27T09:33:32.916Z,25.08
2018-06-27T09:34:32.950Z,25.28
2018-06-27T09:35:32.959Z,25.47
2018-06-27T09:36:32.976Z,25.65
2018-06-27T09:37:33.010Z,25.77
2018-06-27T09:38:33.028Z,25.68
2018-06-27T09:39:33.053Z,25.50
2018-06-27T09:40:33.070Z,25.29
2018-06-27T09:41:33.099Z,24.99
2018-06-27T09:42:33.125Z,24.61
2018-06-27T09:43:33.149Z,24.76
2018-06-27T09:44:33.178Z,25.51
2018-06-27T09:45:33.213Z,25.69
2018-06-27T09:46:33.215Z,25.38
2018-06-27T09:47:33.237Z,25.58
2018-06-27T09:48:33.263Z,25.29
2018-06-27T09:49:33.284Z,25.25
2018-06-27T09:50:33.309Z,25.16
2018-06-27T09:51:33.341Z,25.29
2018-06-27T09:52:33.353Z,24.47
2018-06-27T09:53:33.385Z,24.88
2018-06-27T09:54:33.397Z,24.39
2018-06-27T09:55:33.419Z,24.88
2018-06-27T09:56:33.441Z,24.95
2018-06-27T09:57:33.473Z,24.65
2018-06-27T09:58:33.502Z,24.77
2018-06-27T09:59:33.545Z,24.73
2018-06-27T10:00:33.534Z,24.99
2018-06-27T10:01:33.553Z,25.36
2018-06-27T10:02:33.579Z,25.80
2018-06-27T10:03:33.603Z,25.65
2018-06-27T10:04:33.633Z,25.50
2018-06-27T10:05:33.652Z,25.29
2018-06-27T10:06:33.672Z,25.35
2018-06-27T10:07:33.749Z,25.48
2018-06-27T10:08:33.717Z,25.93
2018-06-27T10:09:33.747Z,25.35
2018-06-27T10:10:33.767Z,24.91
2018-06-27T10:11:33.790Z,25.01
2018-06-27T10:12:33.819Z,24.92
2018-06-27T10:13:33.836Z,25.28
2018-06-27T10:14:33.862Z,25.03
2018-06-27T10:15:33.886Z,25.44
2018-06-27T10:16:33.901Z,25.46
2018-06-27T10:17:33.945Z,25.31
2018-06-27T10:18:33.951Z,26.00
2018-06-27T10:19:33.978Z,26.37
2018-06-27T10:20:34.004Z,26.33
2018-06-27T10:21:34.030Z,26.25
2018-06-27T10:22:34.084Z,26.44
2018-06-27T10:23:34.068Z,26.47
2018-06-27T10:24:34.094Z,26.03
2018-06-27T10:25:34.125Z,25.93
2018-06-27T10:26:34.151Z,26.23
2018-06-27T10:27:34.162Z,25.73
2018-06-27T10:28:34.253Z,25.14
2018-06-27T10:29:34.235Z,25.38
2018-06-27T10:30:34.243Z,25.58
2018-06-27T10:31:34.257Z,25.35
2018-06-27T10:32:34.280Z,25.03
2018-06-27T10:33:34.310Z,25.38
2018-06-27T10:34:34.329Z,25.60
2018-06-27T10:35:34.354Z,25.41
2018-06-27T10:36:34.381Z,25.65
2018-06-27T10:37:34.403Z,25.43
2018-06-27T10:38:34.439Z,25.48
2018-06-27T10:39:34.446Z,25.83
2018-06-27T10:40:34.474Z,26.09
2018-06-27T10:41:34.500Z,26.48
2018-06-27T10:42:34.522Z,26.10
2018-06-27T10:43:34.553Z,25.95
2018-06-27T10:44:34.587Z,25.96
2018-06-27T10:45:34.595Z,25.81
2018-06-27T10:46:34.617Z,26.18
2018-06-27T10:47:34.634Z,25.95
2018-06-27T10:48:34.663Z,26.65
2018-06-27T10:49:34.692Z,26.60
2018-06-27T10:50:34.732Z,26.66
2018-06-27T10:51:34.739Z,26.66
2018-06-27T10:52:34.772Z,26.75
2018-06-27T10:53:34.778Z,26.59
2018-06-27T10:54:34.812Z,26.56
2018-06-27T10:55:34.823Z,26.23
2018-06-27T10:56:34.857Z,26.18
2018-06-27T10:57:34.871Z,26.13
2018-06-27T10:58:34.901Z,26.78
2018-06-27T10:59:34.924Z,26.65
2018-06-27T11:00:34.985Z,26.77
2018-06-27T11:01:34.986Z,26.41
2018-06-27T11:02:34.989Z,26.58
2018-06-27T11:03:35.013Z,26.47
2018-06-27T11:04:35.043Z,26.66
2018-06-27T11:05:35.065Z,26.51
2018-06-27T11:06:35.092Z,26.73
2018-06-27T11:07:35.117Z,26.43
2018-06-27T11:08:35.139Z,26.55
2018-06-27T11:09:35.161Z,26.37
2018-06-27T11:10:35.195Z,27.12
2018-06-27T11:11:35.220Z,26.73
2018-06-27T11:12:35.231Z,26.41
2018-06-27T11:13:35.256Z,26.40
2018-06-27T11:14:35.286Z,26.10
2018-06-27T11:15:35.316Z,26.26
2018-06-27T11:16:35.332Z,26.51
2018-06-27T11:17:35.353Z,26.41
2018-06-27T11:18:35.390Z,26.02
2018-06-27T11:19:35.406Z,26.40
2018-06-27T11:20:35.423Z,26.71
2018-06-27T11:21:35.446Z,26.52
2018-06-27T11:22:35.472Z,27.02
2018-06-27T11:23:35.495Z,26.97
2018-06-27T11:24:35.518Z,26.43
2018-06-27T11:25:35.543Z,26.21
2018-06-27T11:26:35.592Z,26.58
2018-06-27T11:27:35.591Z,26.77
2018-06-27T11:28:35.613Z,25.84
2018-06-27T11:29:35.635Z,26.31
2018-06-27T11:30:35.679Z,26.31
2018-06-27T11:31:35.683Z,26.44
2018-06-27T11:32:35.708Z,26.33
2018-06-27T11:33:35.737Z,26.41
2018-06-27T11:34:35.793Z,26.37
2018-06-27T11:35:35.784Z,26.05
2018-06-27T11:36:35.821Z,26.31
2018-06-27T11:37:35.828Z,26.33
2018-06-27T11:38:35.893Z,26.38
2018-06-27T11:39:35.874Z,26.06
2018-06-27T11:40:35.920Z,25.99
2018-06-27T11:41:35.933Z,26.47
2018-06-27T11:42:35.943Z,26.89
2018-06-27T11:43:35.977Z,26.66
2018-06-27T11:44:36.016Z,27.03
2018-06-27T11:45:36.018Z,26.97
2018-06-27T11:46:36.045Z,27.25
2018-06-27T11:47:36.065Z,27.26
2018-06-27T11:48:36.087Z,27.18
2018-06-27T11:49:36.121Z,27.33
2018-06-27T11:50:36.146Z,27.14
2018-06-27T11:51:36.176Z,27.51
2018-06-27T11:52:36.188Z,27.51
2018-06-27T11:53:36.228Z,27.59
2018-06-27T11:54:36.236Z,27.45
2018-06-27T11:55:36.256Z,27.10
2018-06-27T11:56:36.282Z,26.93
2018-06-27T11:57:36.306Z,26.97
2018-06-27T11:58:36.335Z,26.74
2018-06-27T11:59:36.360Z,26.92
2018-06-27T12:00:36.398Z,27.00
2018-06-27T12:01:36.406Z,27.02
2018-06-27T12:02:36.431Z,26.66
2018-06-27T12:03:36.456Z,26.62
2018-06-27T12:04:36.507Z,26.48
2018-06-27T12:05:36.500Z,26.66
2018-06-27T12:06:36.539Z,27.12
2018-06-27T12:07:36.570Z,27.08
2018-06-27T12:08:36.570Z,27.45
2018-06-27T12:09:36.602Z,27.52
2018-06-27T12:10:36.622Z,27.74
2018-06-27T12:11:36.643Z,27.59
2018-06-27T12:12:36.666Z,27.59
2018-06-27T12:13:36.688Z,27.10
2018-06-27T12:14:36.714Z,27.22
2018-06-27T12:15:36.736Z,27.00
2018-06-27T12:16:36.760Z,26.92
2018-06-27T12:17:36.788Z,27.37
2018-06-27T12:18:36.809Z,27.60
2018-06-27T12:19:36.843Z,27.26
2018-06-27T12:20:36.863Z,26.99
2018-06-27T12:21:36.894Z,27.03
2018-06-27T12:22:36.909Z,27.55
2018-06-27T12:23:36.930Z,26.62
2018-06-27T12:24:36.961Z,26.19
2018-06-27T12:25:36.985Z,26.43
2018-06-27T12:26:37.002Z,26.63
2018-06-27T12:27:37.025Z,26.63
2018-06-27T12:28:37.055Z,27.12
2018-06-27T12:29:37.086Z,26.68
2018-06-27T12:30:37.102Z,26.41
2018-06-27T12:31:37.131Z,26.25
2018-06-27T12:32:37.152Z,26.13
2018-06-27T12:33:37.179Z,26.38
2018-06-27T12:34:37.193Z,26.66
2018-06-27T12:35:37.227Z,26.73
2018-06-27T12:36:37.255Z,26.73
2018-06-27T12:37:37.272Z,26.83
2018-06-27T12:38:37.302Z,26.95
2018-06-27T12:39:37.317Z,26.63
2018-06-27T12:40:37.352Z,26.44
2018-06-27T12:41:37.366Z,25.93
2018-06-27T12:42:37.395Z,26.73
2018-06-27T12:43:37.408Z,27.02
2018-06-27T12:44:37.431Z,27.03
2018-06-27T12:45:37.456Z,27.15
2018-06-27T12:46:37.483Z,27.35
2018-06-27T12:47:37.505Z,27.48
2018-06-27T12:48:37.530Z,26.96
2018-06-27T12:49:37.552Z,26.41
2018-06-27T12:50:37.572Z,26.55
2018-06-27T12:51:37.600Z,26.28
2018-06-27T12:52:37.622Z,26.68